createdAt,value
2022-11-25T00:01:28.490Z,11.88
2022-11-25T00:03:55.996Z,16.08
2022-11-25T00:06:24.535Z,14.43
2022-11-25T00:09:03.114Z,15.40
2022-11-25T00:11:29.918Z,9.90
2022-11-25T00:13:57.399Z,14.40
2022-11-25T00:16:24.962Z,12.23
2022-11-25T00:18:53.163Z,15.43
2022-11-25T00:21:23.977Z,10.07
2022-11-25T00:23:52.522Z,12.98
2022-11-25T00:26:19.327Z,9.38
2022-11-25T00:28:47.053Z,12.23
2022-11-25T00:31:22.288Z,17.27
2022-11-25T00:33:49.071Z,12.48
2022-11-25T00:36:17.050Z,15.23
2022-11-25T00:38:44.062Z,13.70
2022-11-25T00:41:29.251Z,10.38
2022-11-25T00:44:14.620Z,15.75
2022-11-25T00:46:41.431Z,12.45
2022-11-25T00:49:07.873Z,9.80
2022-11-25T00:51:34.327Z,9.85
2022-11-25T00:54:00.913Z,14.30
2022-11-25T00:56:27.369Z,14.32
2022-11-25T00:58:54.212Z,14.75
2022-11-25T01:01:20.985Z,12.32
2022-11-25T01:03:51.553Z,15.98
2022-11-25T01:06:18.199Z,17.52
2022-11-25T01:08:44.778Z,16.58
2022-11-25T01:11:14.095Z,10.98
2022-11-25T01:13:41.815Z,14.60
2022-11-25T01:16:10.987Z,16.20
2022-11-25T01:18:37.427Z,19.33
2022-11-25T01:21:21.446Z,12.50
2022-11-25T01:23:48.864Z,11.60
2022-11-25T01:26:17.821Z,12.85
2022-11-25T01:28:44.568Z,13.95
2022-11-25T01:31:14.419Z,9.88
2022-11-25T01:33:41.570Z,14.90
2022-11-25T01:36:11.005Z,10.65
2022-11-25T01:38:39.251Z,15.77
2022-11-25T01:41:07.534Z,13.48
2022-11-25T01:43:34.231Z,17.40
2022-11-25T01:46:26.051Z,14.63
2022-11-25T01:49:02.856Z,12.63
2022-11-25T01:51:32.711Z,16.92
2022-11-25T01:54:02.723Z,9.00
2022-11-25T01:56:31.182Z,12.65
2022-11-25T01:58:57.615Z,15.80
2022-11-25T02:01:24.278Z,15.77
2022-11-25T02:03:52.377Z,15.35
2022-11-25T02:06:41.877Z,15.68
2022-11-25T02:09:09.025Z,15.07
2022-11-25T02:11:39.136Z,14.90
2022-11-25T02:14:05.949Z,10.85
2022-11-25T02:16:32.559Z,15.18
2022-11-25T02:18:59.143Z,12.60
2022-11-25T02:21:32.463Z,14.30
2022-11-25T02:24:07.889Z,13.38
2022-11-25T02:26:34.540Z,12.07
2022-11-25T02:29:01.063Z,12.73
2022-11-25T02:31:27.545Z,11.70
2022-11-25T02:33:54.058Z,13.63
2022-11-25T02:36:22.671Z,12.90
2022-11-25T02:38:57.216Z,11.90
2022-11-25T02:41:35.529Z,10.65
2022-11-25T02:44:02.648Z,11.00
2022-11-25T02:46:30.410Z,10.93
2022-11-25T02:49:09.025Z,11.50
2022-11-25T02:51:36.535Z,10.98
2022-11-25T02:54:03.104Z,8.68
2022-11-25T02:56:32.446Z,16.50
2022-11-25T02:58:59.303Z,12.73
2022-11-25T03:01:26.209Z,16.17
2022-11-25T03:03:52.741Z,14.90
2022-11-25T03:06:19.352Z,13.25
2022-11-25T03:08:45.780Z,12.23
2022-11-25T03:11:12.370Z,11.00
2022-11-25T03:13:38.853Z,11.73
2022-11-25T03:16:05.670Z,14.55
2022-11-25T03:18:32.353Z,14.25
2022-11-25T03:20:58.722Z,9.40
2022-11-25T03:23:25.686Z,10.90
2022-11-25T03:25:52.240Z,9.13
2022-11-25T03:28:18.699Z,12.55
2022-11-25T03:30:45.134Z,12.73
2022-11-25T03:33:11.637Z,9.88
2022-11-25T03:35:38.137Z,14.23
2022-11-25T03:38:05.013Z,9.85
2022-11-25T03:40:31.468Z,10.00
2022-11-25T03:42:57.995Z,10.52
2022-11-25T03:45:24.440Z,11.68
2022-11-25T03:47:50.914Z,9.15
2022-11-25T03:50:17.351Z,9.02
2022-11-25T03:52:43.745Z,9.80
2022-11-25T03:55:13.020Z,7.22
2022-11-25T03:57:39.764Z,10.20
2022-11-25T04:00:07.291Z,10.80
2022-11-25T04:02:33.741Z,10.23
2022-11-25T04:05:00.200Z,9.13
2022-11-25T04:07:26.633Z,11.35
2022-11-25T04:09:53.183Z,12.40
2022-11-25T04:12:38.388Z,8.70
2022-11-25T04:15:05.368Z,12.85
2022-11-25T04:17:31.830Z,8.85
2022-11-25T04:19:58.312Z,11.32
2022-11-25T04:22:24.776Z,9.32
2022-11-25T04:24:51.239Z,11.88
2022-11-25T04:27:20.181Z,15.52
2022-11-25T04:29:46.934Z,16.77
2022-11-25T04:32:13.706Z,12.13
2022-11-25T04:34:40.142Z,8.82
2022-11-25T04:37:06.569Z,11.98
2022-11-25T04:39:33.027Z,12.20
2022-11-25T04:42:17.957Z,10.80
2022-11-25T04:44:56.082Z,9.38
2022-11-25T04:47:31.973Z,14.30
2022-11-25T04:49:58.870Z,12.38
2022-11-25T04:52:25.581Z,8.80
2022-11-25T04:54:52.061Z,11.45
2022-11-25T04:57:18.682Z,9.60
2022-11-25T04:59:45.401Z,16.25
2022-11-25T05:02:20.154Z,11.88
2022-11-25T05:04:48.420Z,8.85
2022-11-25T05:07:16.035Z,11.45
2022-11-25T05:09:42.649Z,12.40
2022-11-25T05:12:12.156Z,10.38
2022-11-25T05:14:38.722Z,10.88
2022-11-25T05:17:06.527Z,9.90
2022-11-25T05:19:35.875Z,11.88
2022-11-25T05:22:02.408Z,12.27
2022-11-25T05:24:28.819Z,12.98
2022-11-25T05:26:55.415Z,14.52
2022-11-25T05:29:21.889Z,14.10
2022-11-25T05:31:48.407Z,8.30
2022-11-25T05:34:14.914Z,11.63
2022-11-25T05:36:41.362Z,19.45
2022-11-25T05:39:07.832Z,13.63
2022-11-25T05:41:34.286Z,15.00
2022-11-25T05:44:00.782Z,13.73
2022-11-25T05:46:27.277Z,12.32
2022-11-25T05:48:55.278Z,14.90
2022-11-25T05:51:22.326Z,13.05
2022-11-25T05:53:48.780Z,14.05
2022-11-25T05:56:15.424Z,12.38
2022-11-25T05:58:41.795Z,17.63
2022-11-25T06:01:09.886Z,14.40
2022-11-25T06:03:36.863Z,14.60
2022-11-25T06:06:03.542Z,12.82
2022-11-25T06:08:30.692Z,15.90
2022-11-25T06:10:57.207Z,16.70
2022-11-25T06:13:23.775Z,13.27
2022-11-25T06:15:50.235Z,14.00
2022-11-25T06:18:17.675Z,14.63
2022-11-25T06:20:44.523Z,15.32
2022-11-25T06:23:11.116Z,17.38
2022-11-25T06:25:37.860Z,14.20
2022-11-25T06:28:12.769Z,16.80
2022-11-25T06:30:39.873Z,19.48
2022-11-25T06:33:06.364Z,15.43
2022-11-25T06:35:32.783Z,14.70
2022-11-25T06:37:59.623Z,18.92
2022-11-25T06:40:26.090Z,11.40
2022-11-25T06:42:52.596Z,12.65
2022-11-25T06:45:19.022Z,15.45
2022-11-25T06:47:45.450Z,18.35
2022-11-25T06:50:11.930Z,16.88
2022-11-25T06:52:38.360Z,18.27
2022-11-25T06:55:05.220Z,20.00
2022-11-25T06:57:31.645Z,15.35
2022-11-25T06:59:58.175Z,15.50
2022-11-25T07:02:24.705Z,15.50
2022-11-25T07:04:51.261Z,18.60
2022-11-25T07:07:17.721Z,16.73
2022-11-25T07:09:44.267Z,17.58
2022-11-25T07:12:12.428Z,16.30
2022-11-25T07:14:39.172Z,17.48
2022-11-25T07:17:11.539Z,16.67
2022-11-25T07:19:38.522Z,19.48
2022-11-25T07:22:04.979Z,17.05
2022-11-25T07:24:31.344Z,15.40
2022-11-25T07:26:57.741Z,17.17
2022-11-25T07:32:11.172Z,15.07
2022-11-25T07:34:37.667Z,14.32
2022-11-25T07:37:04.213Z,15.80
2022-11-25T07:39:30.632Z,16.83
2022-11-25T07:41:57.085Z,16.27
2022-11-25T07:44:23.490Z,14.02
2022-11-25T07:46:50.503Z,14.30
2022-11-25T07:49:19.405Z,14.25
2022-11-25T07:51:53.258Z,13.88
2022-11-25T07:54:20.847Z,14.88
2022-11-25T07:56:48.672Z,16.25
2022-11-25T07:59:17.613Z,18.13
2022-11-25T08:01:44.189Z,19.70
2022-11-25T08:04:18.095Z,13.43
2022-11-25T08:06:47.451Z,18.27
2022-11-25T08:09:16.059Z,13.27
2022-11-25T08:11:42.563Z,17.08
2022-11-25T08:14:10.190Z,16.52
2022-11-25T08:16:37.164Z,13.35
2022-11-25T08:19:06.381Z,17.27
2022-11-25T08:21:33.927Z,17.63
2022-11-25T08:24:02.888Z,18.45
2022-11-25T08:26:31.532Z,18.50
2022-11-25T08:28:58.783Z,13.27
2022-11-25T08:31:27.886Z,13.00
2022-11-25T08:33:55.223Z,18.25
2022-11-25T08:36:22.014Z,10.48
2022-11-25T08:38:50.407Z,14.88
2022-11-25T08:41:20.477Z,15.27
2022-11-25T08:43:47.546Z,14.00
2022-11-25T08:46:18.283Z,12.15
2022-11-25T08:48:45.269Z,16.23
2022-11-25T08:51:14.585Z,11.60
2022-11-25T08:53:41.388Z,15.07
2022-11-25T08:56:08.656Z,16.55
2022-11-25T08:58:35.639Z,16.75
2022-11-25T09:01:02.887Z,14.18
2022-11-25T09:03:36.167Z,14.27
2022-11-25T09:06:03.177Z,17.27
2022-11-25T09:08:31.143Z,14.98
2022-11-25T09:10:58.145Z,14.52
2022-11-25T09:13:24.615Z,20.33
2022-11-25T09:15:51.146Z,18.20
2022-11-25T09:18:20.068Z,14.57
2022-11-25T09:20:47.200Z,17.23
2022-11-25T09:23:13.750Z,14.13
2022-11-25T09:25:40.424Z,15.90
2022-11-25T09:28:06.878Z,21.92
2022-11-25T09:30:33.548Z,17.20
2022-11-25T09:33:00.062Z,17.00
2022-11-25T09:35:27.563Z,18.45
2022-11-25T09:37:54.055Z,19.67
2022-11-25T09:40:27.611Z,19.40
2022-11-25T09:43:27.808Z,16.70
2022-11-25T09:46:15.929Z,17.15
2022-11-25T09:48:59.323Z,24.38
2022-11-25T09:51:32.307Z,22.20
2022-11-25T09:54:07.259Z,18.17
2022-11-25T09:56:41.401Z,21.15
2022-11-25T09:59:18.663Z,18.30
2022-11-25T10:02:25.813Z,22.42
2022-11-25T10:04:58.722Z,17.92
2022-11-25T10:07:33.172Z,22.58
2022-11-25T10:10:01.821Z,20.58
2022-11-25T10:12:31.174Z,22.70
2022-11-25T10:15:03.499Z,18.05
2022-11-25T10:17:44.367Z,21.23
2022-11-25T10:20:21.200Z,23.70
2022-11-25T10:22:56.118Z,21.48
2022-11-25T10:25:28.590Z,16.73
2022-11-25T10:28:02.195Z,20.60
2022-11-25T10:30:41.000Z,17.30
2022-11-25T10:33:16.553Z,17.48
2022-11-25T10:36:06.819Z,19.55
2022-11-25T10:38:41.345Z,20.05
2022-11-25T10:41:12.241Z,21.15
2022-11-25T10:43:41.431Z,20.95
2022-11-25T10:47:13.040Z,14.93
2022-11-25T10:50:02.128Z,17.55
2022-11-25T10:52:32.719Z,21.20
2022-11-25T10:55:24.232Z,15.85
2022-11-25T10:57:50.886Z,20.67
2022-11-25T11:00:32.917Z,17.38
2022-11-25T11:03:12.881Z,15.02
2022-11-25T11:05:48.725Z,18.70
2022-11-25T11:08:22.468Z,15.15
2022-11-25T11:11:08.889Z,14.20
2022-11-25T11:13:35.311Z,15.18
2022-11-25T11:16:01.774Z,15.15
2022-11-25T11:18:37.343Z,18.45
2022-11-25T11:21:05.622Z,18.70
2022-11-25T11:23:47.711Z,16.92
2022-11-25T11:26:23.844Z,22.70
2022-11-25T11:29:02.555Z,15.00
2022-11-25T11:31:32.640Z,13.95
2022-11-25T11:34:20.881Z,18.10
2022-11-25T11:37:06.202Z,19.98
2022-11-25T11:39:50.799Z,23.20
2022-11-25T11:42:35.932Z,15.10
2022-11-25T11:45:25.047Z,16.58
2022-11-25T11:48:12.327Z,17.02
2022-11-25T11:50:56.435Z,20.80
2022-11-25T11:53:45.991Z,17.73
2022-11-25T11:56:36.137Z,17.50
2022-11-25T11:59:18.880Z,22.00
2022-11-25T12:01:55.290Z,25.45
2022-11-25T12:04:40.630Z,22.30
2022-11-25T12:07:16.053Z,21.83
2022-11-25T12:09:48.065Z,21.10
2022-11-25T12:12:19.079Z,22.10
2022-11-25T12:14:50.791Z,21.27
2022-11-25T12:17:21.010Z,18.33
2022-11-25T12:19:55.524Z,21.48
2022-11-25T12:22:33.839Z,19.88
2022-11-25T12:25:08.977Z,17.10
2022-11-25T12:27:46.223Z,16.80
2022-11-25T12:30:16.050Z,17.42
2022-11-25T12:33:05.008Z,20.48
2022-11-25T12:35:51.769Z,18.67
2022-11-25T12:38:23.698Z,18.52
2022-11-25T12:40:57.151Z,14.45
2022-11-25T12:43:33.942Z,18.23
2022-11-25T12:46:07.913Z,16.05
2022-11-25T12:48:38.376Z,15.30
2022-11-25T12:51:24.746Z,18.33
2022-11-25T12:54:06.576Z,15.32
2022-11-25T12:56:54.841Z,18.07
2022-11-25T12:59:27.199Z,20.05
2022-11-25T13:02:08.350Z,15.95
2022-11-25T13:05:38.964Z,14.15
2022-11-25T13:08:16.655Z,16.55
2022-11-25T13:11:17.534Z,13.90
2022-11-25T13:14:20.278Z,15.23
2022-11-25T13:16:48.809Z,15.27
2022-11-25T13:19:17.563Z,12.23
2022-11-25T13:22:01.304Z,13.23
2022-11-25T13:24:40.379Z,12.15
2022-11-25T13:27:33.205Z,14.35
2022-11-25T13:30:00.584Z,13.57
2022-11-25T13:32:45.985Z,16.02
2022-11-25T13:35:46.053Z,14.65
2022-11-25T13:38:30.594Z,14.32
2022-11-25T13:41:02.448Z,13.65
2022-11-25T13:43:28.938Z,15.88
2022-11-25T13:45:55.951Z,14.00
2022-11-25T13:48:25.917Z,14.10
2022-11-25T13:51:12.692Z,13.70
2022-11-25T13:53:39.460Z,18.10
2022-11-25T13:56:36.170Z,13.35
2022-11-25T13:59:11.762Z,16.08
2022-11-25T14:01:57.845Z,17.90
2022-11-25T14:04:51.977Z,16.85
2022-11-25T14:07:54.725Z,14.65
2022-11-25T14:10:45.730Z,15.15
2022-11-25T14:13:30.850Z,18.13
2022-11-25T14:16:08.730Z,13.45
2022-11-25T14:19:16.915Z,15.63
2022-11-25T14:21:40.917Z,15.80
2022-11-25T14:24:36.142Z,16.80
2022-11-25T14:27:03.557Z,16.75
2022-11-25T14:29:37.186Z,17.05
2022-11-25T14:32:21.495Z,22.30
2022-11-25T14:34:53.243Z,16.38
2022-11-25T14:37:21.351Z,15.15
2022-11-25T14:40:26.820Z,15.63
2022-11-25T14:42:59.512Z,15.13
2022-11-25T14:45:31.381Z,13.63
2022-11-25T14:47:57.813Z,16.95
2022-11-25T14:50:34.882Z,14.50
2022-11-25T14:53:06.534Z,13.05
2022-11-25T14:55:33.107Z,17.40
2022-11-25T14:57:59.625Z,15.48
2022-11-25T15:00:26.151Z,16.15
2022-11-25T15:03:01.114Z,17.08
2022-11-25T15:05:33.278Z,16.73
2022-11-25T15:08:03.685Z,16.90
2022-11-25T15:10:42.608Z,14.70
2022-11-25T15:13:18.958Z,15.07
2022-11-25T15:15:46.350Z,15.48
2022-11-25T15:18:18.627Z,19.25
2022-11-25T15:20:48.749Z,13.98
2022-11-25T15:23:22.881Z,13.27
2022-11-25T15:25:51.180Z,14.77
2022-11-25T15:28:17.661Z,13.25
2022-11-25T15:30:55.480Z,14.82
2022-11-25T15:33:23.940Z,15.85
2022-11-25T15:35:50.366Z,13.73
2022-11-25T15:38:35.655Z,18.60
2022-11-25T15:41:02.330Z,15.25
2022-11-25T15:43:30.638Z,16.85
2022-11-25T15:46:02.141Z,16.10
2022-11-25T15:48:32.918Z,17.80
2022-11-25T15:51:05.298Z,16.77
2022-11-25T15:53:36.764Z,13.93
2022-11-25T15:56:05.837Z,15.13
2022-11-25T15:58:32.426Z,19.17
2022-11-25T16:01:17.432Z,17.27
2022-11-25T16:03:45.117Z,15.05
2022-11-25T16:06:28.386Z,19.40
2022-11-25T16:09:00.676Z,18.75
2022-11-25T16:11:33.049Z,15.98
2022-11-25T16:14:28.693Z,16.88
2022-11-25T16:17:01.390Z,18.17
2022-11-25T16:19:38.930Z,23.38
2022-11-25T16:22:05.700Z,17.05
2022-11-25T16:24:49.769Z,17.23
2022-11-25T16:27:19.102Z,17.65
2022-11-25T16:29:57.123Z,17.67
2022-11-25T16:32:27.080Z,20.60
2022-11-25T16:34:56.517Z,17.67
2022-11-25T16:37:23.695Z,17.15
2022-11-25T16:39:50.118Z,20.40
2022-11-25T16:42:19.756Z,20.60
2022-11-25T16:44:51.231Z,20.98
2022-11-25T16:47:19.228Z,23.58
2022-11-25T16:49:46.548Z,20.30
2022-11-25T16:52:13.837Z,20.88
2022-11-25T16:54:41.961Z,18.70
2022-11-25T16:57:14.943Z,23.58
2022-11-25T16:59:42.881Z,22.40
2022-11-25T17:02:21.233Z,19.23
2022-11-25T17:04:48.938Z,19.35
2022-11-25T17:07:32.591Z,17.15
2022-11-25T17:10:00.048Z,20.10
2022-11-25T17:12:30.180Z,19.52
2022-11-25T17:14:56.695Z,18.45
2022-11-25T17:17:25.170Z,17.40
2022-11-25T17:19:52.529Z,18.23
2022-11-25T17:22:24.637Z,20.00
2022-11-25T17:24:51.195Z,18.27
2022-11-25T17:27:29.983Z,18.98
2022-11-25T17:29:57.597Z,15.45
2022-11-25T17:32:25.331Z,20.55
2022-11-25T17:34:51.768Z,16.20
2022-11-25T17:37:23.096Z,16.70
2022-11-25T17:39:52.669Z,20.02
2022-11-25T17:42:29.181Z,20.50
2022-11-25T17:44:55.991Z,18.25
2022-11-25T17:47:22.480Z,17.08
2022-11-25T17:49:49.524Z,17.25
2022-11-25T17:52:16.053Z,19.70
2022-11-25T17:54:42.545Z,21.38
2022-11-25T17:57:17.490Z,18.55
2022-11-25T17:59:44.007Z,19.00
2022-11-25T18:02:21.742Z,19.80
2022-11-25T18:04:48.409Z,16.58
2022-11-25T18:07:14.948Z,20.42
2022-11-25T18:09:41.417Z,16.50
2022-11-25T18:12:23.386Z,17.25
2022-11-25T18:14:49.825Z,22.00
2022-11-25T18:17:18.709Z,20.00
2022-11-25T18:19:49.854Z,19.55
2022-11-25T18:22:19.708Z,21.52
2022-11-25T18:24:46.427Z,22.40
2022-11-25T18:27:20.580Z,17.00
2022-11-25T18:29:47.109Z,18.67
2022-11-25T18:32:13.829Z,24.35
2022-11-25T18:34:40.314Z,20.35
2022-11-25T18:37:07.053Z,21.83
2022-11-25T18:39:33.414Z,23.85
2022-11-25T18:41:59.989Z,18.88
2022-11-25T18:44:28.905Z,17.02
2022-11-25T18:46:55.414Z,21.30
2022-11-25T18:49:22.120Z,22.95
2022-11-25T18:51:48.633Z,22.23
2022-11-25T18:54:15.336Z,22.92
2022-11-25T18:56:42.140Z,23.02
2022-11-25T18:59:13.960Z,18.65
2022-11-25T19:01:42.410Z,19.65
2022-11-25T19:04:15.575Z,19.30
2022-11-25T19:06:42.254Z,22.17
2022-11-25T19:09:08.709Z,19.65
2022-11-25T19:11:42.408Z,17.98
2022-11-25T19:14:24.275Z,19.92
2022-11-25T19:16:50.897Z,15.90
2022-11-25T19:19:17.433Z,23.17
2022-11-25T19:21:43.833Z,18.63
2022-11-25T19:24:14.533Z,18.05
2022-11-25T19:26:43.838Z,18.67
2022-11-25T19:29:14.521Z,20.30
2022-11-25T19:31:41.068Z,20.20
2022-11-25T19:34:08.797Z,17.77
2022-11-25T19:36:37.624Z,23.77
2022-11-25T19:39:15.505Z,16.80
2022-11-25T19:41:41.958Z,18.88
2022-11-25T19:44:08.344Z,22.15
2022-11-25T19:46:52.592Z,16.90
2022-11-25T19:49:19.894Z,21.73
2022-11-25T19:51:46.972Z,20.20
2022-11-25T19:54:15.760Z,24.02
2022-11-25T19:56:43.562Z,24.73
2022-11-25T19:59:10.523Z,20.20
2022-11-25T20:01:40.906Z,20.90
2022-11-25T20:04:08.208Z,25.02
2022-11-25T20:06:34.721Z,20.73
2022-11-25T20:09:06.531Z,22.70
2022-11-25T20:11:36.441Z,22.10
2022-11-25T20:14:03.942Z,28.05
2022-11-25T20:16:35.244Z,29.30
2022-11-25T20:19:01.971Z,26.73
2022-11-25T20:21:39.903Z,27.90
2022-11-25T20:24:12.986Z,25.67
2022-11-25T20:26:40.198Z,24.25
2022-11-25T20:29:24.529Z,29.15
2022-11-25T20:31:55.310Z,23.38
2022-11-25T20:34:21.740Z,23.42
2022-11-25T20:36:48.230Z,24.85
2022-11-25T20:39:19.187Z,29.42
2022-11-25T20:41:50.365Z,27.75
2022-11-25T20:44:17.121Z,27.58
2022-11-25T20:46:43.501Z,30.63
2022-11-25T20:49:27.121Z,27.52
2022-11-25T20:51:53.652Z,36.20
2022-11-25T20:54:20.114Z,28.48
2022-11-25T20:56:46.652Z,27.50
2022-11-25T20:59:21.619Z,41.80
2022-11-25T21:01:49.359Z,40.45
2022-11-25T21:04:16.011Z,29.45
2022-11-25T21:06:42.461Z,39.33
2022-11-25T21:09:18.988Z,46.10
2022-11-25T21:11:46.296Z,35.90
2022-11-25T21:14:14.569Z,37.72
2022-11-25T21:16:41.518Z,34.55
2022-11-25T21:19:07.998Z,37.55
2022-11-25T21:21:36.424Z,34.17
2022-11-25T21:24:07.288Z,35.28
2022-11-25T21:26:34.177Z,47.67
2022-11-25T21:29:00.564Z,53.05
2022-11-25T21:31:26.995Z,46.35
2022-11-25T21:33:57.451Z,38.17
2022-11-25T21:36:28.339Z,33.90
2022-11-25T21:39:02.091Z,35.80
2022-11-25T21:41:28.639Z,40.42
2022-11-25T21:43:55.119Z,40.55
2022-11-25T21:46:24.986Z,34.97
2022-11-25T21:48:51.472Z,34.47
2022-11-25T21:51:24.380Z,34.85
2022-11-25T21:53:52.122Z,33.70
2022-11-25T21:56:33.824Z,34.83
2022-11-25T21:59:01.912Z,35.50
2022-11-25T22:01:28.914Z,37.42
2022-11-25T22:03:55.653Z,36.90
2022-11-25T22:06:27.713Z,42.65
2022-11-25T22:08:54.988Z,38.95
2022-11-25T22:11:30.049Z,34.88
2022-11-25T22:13:56.699Z,45.20
2022-11-25T22:16:29.948Z,36.45
2022-11-25T22:18:56.841Z,39.35
2022-11-25T22:21:23.434Z,44.10
2022-11-25T22:23:49.824Z,38.47
2022-11-25T22:26:21.190Z,36.67
2022-11-25T22:28:50.689Z,42.08
2022-11-25T22:31:17.632Z,47.25
2022-11-25T22:33:44.187Z,41.88
2022-11-25T22:36:37.511Z,44.35
2022-11-25T22:39:20.256Z,51.17
2022-11-25T22:44:45.757Z,50.00
2022-11-25T22:47:33.747Z,47.58
2022-11-25T22:50:06.288Z,48.78
2022-11-25T22:55:09.877Z,50.45
2022-11-25T22:57:38.929Z,38.88
2022-11-25T23:00:10.319Z,52.17
2022-11-25T23:02:36.987Z,47.30
2022-11-25T23:05:09.721Z,50.00
2022-11-25T23:07:36.203Z,52.20
2022-11-25T23:10:02.781Z,54.22
2022-11-25T23:12:29.236Z,48.42
2022-11-25T23:14:55.692Z,47.65
2022-11-25T23:17:24.211Z,50.05
2022-11-25T23:19:51.541Z,44.72
2022-11-25T23:22:18.909Z,49.67
2022-11-25T23:24:47.354Z,51.67
2022-11-25T23:27:14.261Z,48.75
2022-11-25T23:29:40.700Z,52.50
2022-11-25T23:32:16.789Z,55.58
2022-11-25T23:34:43.490Z,59.72
2022-11-25T23:37:12.797Z,62.75
2022-11-25T23:39:39.533Z,62.65
2022-11-25T23:42:13.857Z,59.85
2022-11-25T23:44:40.241Z,54.40
2022-11-25T23:47:09.381Z,63.40
2022-11-25T23:49:40.619Z,62.50
2022-11-25T23:52:08.686Z,56.38
2022-11-25T23:54:40.121Z,65.75
2022-11-25T23:57:29.979Z,70.20
2022-11-25T23:59:56.500Z,61.97
